Time;durP1;ratioP1;P1;durP2;ratioP2;P2;SDS_P1;SDS_P2;PMS_P1;PMS_P2;Temp;Humidity;BMP_temperature;BMP_pressure;BME280_temperature;BME280_humidity;BME280_pressure;Samples;Min_cycle;Max_cycle;Signal;HPM_P1;HPM_P2
2024/04/12 00:01:20;;;;;;;5.93;2.40;;;;;;;14.60;87.85;99768.63;5558035;25;20005;-95
2024/04/12 00:03:58;;;;;;;7.97;3.10;;;;;;;13.74;89.35;99663.88;5559445;25;20002;-95
2024/04/12 00:06:30;;;;;;;7.40;3.15;;;;;;;13.90;89.68;99724.06;5558545;25;20001;-94
2024/04/12 00:09:09;;;;;;;7.97;2.97;;;;;;;13.53;88.82;99635.88;5560020;25;19997;-95
2024/04/12 00:11:38;;;;;;;4.68;2.85;;;;;;;13.70;87.41;99635.47;5555913;25;20005;-94
2024/04/12 00:14:13;;;;;;;7.15;3.00;;;;;;;13.88;86.16;99640.34;5563442;25;19998;-94
2024/04/12 00:16:44;;;;;;;7.25;2.30;;;;;;;14.69;85.42;99762.16;5557715;25;19997;-95
2024/04/12 00:19:23;;;;;;;7.70;3.03;;;;;;;14.74;84.97;99760.22;5560543;25;20008;-96
2024/04/12 00:21:55;;;;;;;4.25;2.58;;;;;;;14.20;84.10;99649.25;5561531;25;19993;-95
2024/04/12 00:24:25;;;;;;;;;;;;;;;14.87;84.22;99752.69;5565016;25;20009;-96
2024/04/12 00:26:55;;;;;;;5.95;2.60;;;;;;;14.15;84.39;99637.81;5563015;25;19930;-96
2024/04/12 00:29:30;;;;;;;4.57;2.72;;;;;;;14.56;88.03;99756.25;5552837;25;20005;-95
2024/04/12 00:32:13;;;;;;;5.50;3.13;;;;;;;14.50;88.01;99751.91;5525437;26;20002;-96
2024/04/12 00:34:47;;;;;;;5.57;2.75;;;;;;;14.43;88.68;99753.00;5560486;25;20007;-96
2024/04/12 00:37:16;;;;;;;4.93;2.42;;;;;;;14.44;88.65;99756.53;5557809;25;20008;-96
2024/04/12 00:39:48;;;;;;;4.35;2.58;;;;;;;14.16;88.70;99710.03;5559027;25;20116;-95
2024/04/12 00:42:31;;;;;;;4.15;2.47;;;;;;;13.84;88.76;99654.72;5560360;25;20006;-95
2024/04/12 00:45:03;;;;;;;5.80;2.53;;;;;;;14.18;90.24;99726.91;5560940;25;20008;-95
2024/04/12 00:47:31;;;;;;;5.53;2.17;;;;;;;14.36;90.47;99754.09;5523340;26;20073;-96
2024/04/12 00:50:00;;;;;;;5.80;2.13;;;;;;;14.39;89.58;99748.66;5514923;26;20047;-96
2024/04/12 00:52:33;;;;;;;5.57;2.42;;;;;;;13.76;90.55;99652.22;5516825;26;19994;-95
2024/04/12 00:55:03;;;;;;;10.68;2.67;;;;;;;13.59;90.09;99613.50;5516307;26;20018;-96
2024/04/12 00:57:35;;;;;;;5.05;2.85;;;;;;;14.01;89.95;99678.34;5516141;25;20002;-95
2024/04/12 01:00:08;;;;;;;7.93;2.03;;;;;;;14.42;90.17;99753.94;5515681;26;20005;-96
2024/04/12 01:02:39;;;;;;;6.00;2.60;;;;;;;14.34;90.79;99755.94;5514838;26;20006;-95
2024/04/12 01:05:08;;;;;;;5.93;2.50;;;;;;;13.63;90.43;99631.19;5519421;26;19994;-95
2024/04/12 01:07:36;;;;;;;3.42;2.20;;;;;;;14.09;91.25;99716.44;5520520;26;20040;-95
2024/04/12 01:10:11;;;;;;;4.38;2.40;;;;;;;14.22;91.65;99766.94;5507349;26;20019;-95
2024/04/12 01:12:39;;;;;;;5.00;2.53;;;;;;;13.47;92.19;99644.97;5504529;26;20002;-94
2024/04/12 01:15:09;;;;;;;18.33;3.42;;;;;;;13.70;92.70;99697.81;5508028;26;19994;-94
2024/04/12 01:17:37;;;;;;;6.20;2.95;;;;;;;13.46;91.68;99650.34;5509430;26;19994;-95
2024/04/12 01:20:04;;;;;;;7.38;3.05;;;;;;;14.03;92.88;99750.47;5507183;26;20003;-95
2024/04/12 01:22:33;;;;;;;6.00;2.45;;;;;;;13.34;93.61;99654.19;5505510;26;20006;-94
2024/04/12 01:25:05;;;;;;;7.32;2.75;;;;;;;13.85;95.73;99768.75;5506208;26;20031;-96
2024/04/12 01:27:34;;;;;;;5.50;2.75;;;;;;;13.12;96.35;99648.47;5504904;26;20087;-96
2024/04/12 01:30:03;;;;;;;8.00;2.65;;;;;;;13.37;96.29;99687.97;5505319;26;20002;-95
2024/04/12 01:32:30;;;;;;;4.25;2.35;;;;;;;13.03;97.36;99645.97;5505425;26;20018;-96
2024/04/12 01:34:59;;;;;;;5.85;2.78;;;;;;;12.97;97.10;99646.09;5505599;26;20002;-96
2024/04/12 01:37:30;;;;;;;8.68;2.90;;;;;;;12.94;98.25;99647.94;5502795;26;20013;-95
2024/04/12 01:40:12;;;;;;;6.32;2.80;;;;;;;12.81;98.69;99651.78;5535486;21;20023;-96
2024/04/12 01:42:44;;;;;;;5.13;2.70;;;;;;;13.56;98.35;99762.31;5468328;26;20007;-95
2024/04/12 01:45:26;;;;;;;7.13;2.90;;;;;;;13.38;100.00;99764.50;5467273;26;20007;-95
2024/04/12 01:48:04;;;;;;;6.03;2.70;;;;;;;12.51;100.00;99639.97;5437643;26;19992;-95
2024/04/12 01:50:46;;;;;;;5.47;2.88;;;;;;;12.57;100.00;99639.00;5441041;26;20042;-96
2024/04/12 01:53:22;;;;;;;4.63;2.83;;;;;;;12.54;100.00;99643.47;5468626;26;20010;-96
2024/04/12 01:56:31;;;;;;;7.60;2.53;;;;;;;12.42;100.00;99643.72;5440198;26;19995;-96
2024/04/12 01:59:44;;;;;;;7.95;3.03;;;;;;;12.73;100.00;99704.47;5441905;26;20008;-95
2024/04/12 02:06:35;;;;;;;7.65;2.97;;;;;;;12.19;100.00;99629.97;5444287;26;19995;-96
2024/04/12 02:09:14;;;;;;;;;;;;;;;12.95;100.00;99755.63;5441014;26;20024;-96
2024/04/12 02:12:00;;;;;;;7.20;3.17;;;;;;;12.07;100.00;99628.44;5440926;26;19924;-95
2024/04/12 02:14:46;;;;;;;7.70;2.95;;;;;;;12.10;100.00;99642.59;5438424;26;20047;-96
2024/04/12 02:17:26;;;;;;;5.75;3.38;;;;;;;12.18;100.00;99633.56;5436027;26;19988;-96
2024/04/12 02:20:09;;;;;;;5.32;2.53;;;;;;;12.18;100.00;99630.91;5468441;26;19999;-96
2024/04/12 02:22:46;;;;;;;5.80;2.90;;;;;;;12.63;100.00;99702.91;5438516;26;20004;-96
2024/04/12 02:25:23;;;;;;;6.22;3.10;;;;;;;12.21;100.00;99612.16;5439177;26;20000;-96
2024/04/12 02:27:56;;;;;;;8.18;3.65;;;;;;;12.25;100.00;99619.19;5439222;26;20008;-96
2024/04/12 02:30:33;;;;;;;8.63;3.65;;;;;;;13.09;100.00;99752.66;5438481;26;20019;-95
2024/04/12 02:33:32;;;;;;;6.43;3.58;;;;;;;13.11;100.00;99758.84;5437330;26;19996;-96
2024/04/12 02:35:59;;;;;;;7.55;3.53;;;;;;;12.26;100.00;99624.50;5465541;26;19999;-96
2024/04/12 02:38:36;;;;;;;5.32;3.00;;;;;;;12.23;100.00;99618.34;5437489;26;20008;-95
2024/04/12 02:41:08;;;;;;;7.90;3.50;;;;;;;12.43;100.00;99641.97;5431752;26;20010;-95
2024/04/12 02:43:40;;;;;;;7.32;3.22;;;;;;;12.90;100.00;99725.47;5459320;26;19999;-95
2024/04/12 02:46:11;;;;;;;6.70;2.95;;;;;;;13.17;100.00;99756.03;5463709;26;20011;-96
2024/04/12 02:48:42;;;;;;;6.30;2.88;;;;;;;12.41;100.00;99625.97;5433610;26;20000;-96
2024/04/12 02:51:12;;;;;;;7.32;3.05;;;;;;;12.43;100.00;99634.81;5433286;26;20003;-95
2024/04/12 02:53:42;;;;;;;7.20;2.70;;;;;;;12.28;100.00;99620.00;5465088;26;20018;-95
2024/04/12 02:56:13;;;;;;;6.78;3.30;;;;;;;12.18;100.00;99614.91;5465487;26;20011;-96
2024/04/12 02:58:48;;;;;;;7.50;3.17;;;;;;;12.06;100.00;99632.91;5466074;26;20027;-95
2024/04/12 03:01:21;;;;;;;;;;;;;;;12.85;100.00;99754.06;5466749;26;20015;-96
2024/04/12 03:03:55;;;;;;;7.25;3.17;;;;;;;12.03;100.00;99635.59;5466054;26;19925;-95
2024/04/12 03:06:31;;;;;;;9.75;3.40;;;;;;;12.67;100.00;99742.84;5436000;26;20323;-96
2024/04/12 03:09:06;;;;;;;5.82;2.75;;;;;;;12.00;100.00;99625.00;5435618;26;19992;-96
2024/04/12 03:11:34;;;;;;;6.30;3.33;;;;;;;11.80;100.00;99613.84;5437521;26;20024;-94
2024/04/12 03:14:08;;;;;;;6.05;3.47;;;;;;;11.59;100.00;99623.94;5436964;26;20001;-95
2024/04/12 03:16:38;;;;;;;4.47;2.65;;;;;;;12.48;100.00;99747.66;5465348;26;19991;-96
2024/04/12 03:19:13;;;;;;;5.88;2.97;;;;;;;11.64;100.00;99619.41;5466259;26;20061;-96
2024/04/12 03:21:54;;;;;;;4.57;2.60;;;;;;;11.68;100.00;99625.56;5435804;26;20007;-96
2024/04/12 03:24:33;;;;;;;5.28;2.90;;;;;;;11.81;100.00;99650.22;5436590;26;20053;-95
2024/04/12 03:27:04;;;;;;;5.70;2.30;;;;;;;12.38;100.00;99748.72;5433015;26;20003;-96
2024/04/12 03:29:39;;;;;;;5.03;2.30;;;;;;;11.45;100.00;99621.53;5439211;26;20038;-96
2024/04/12 03:32:15;;;;;;;4.90;2.40;;;;;;;11.56;100.00;99621.34;5436823;26;20000;-96
2024/04/12 03:34:52;;;;;;;7.03;3.25;;;;;;;11.59;100.00;99621.28;5437141;26;20471;-96
2024/04/12 03:37:23;;;;;;;3.33;2.03;;;;;;;11.54;100.00;99615.19;5437677;26;20011;-95
2024/04/12 03:40:00;;;;;;;4.10;2.05;;;;;;;11.80;100.00;99656.47;5440879;26;20006;-95
2024/04/12 03:45:17;;;;;;;5.32;2.55;;;;;;;11.19;100.00;99631.72;5267302;27;20002;-95
2024/04/12 03:47:50;;;;;;;8.68;3.08;;;;;;;12.15;100.00;99758.97;5268749;27;20003;-96
2024/04/12 03:50:21;;;;;;;5.57;2.85;;;;;;;11.50;100.00;99611.66;5240817;27;20003;-96
2024/04/12 03:52:51;;;;;;;7.38;3.15;;;;;;;12.41;100.00;99724.69;5240254;27;20011;-95
2024/04/12 03:55:39;;;;;;;6.72;3.40;;;;;;;12.18;100.00;99620.22;5239788;27;20007;-96
2024/04/12 03:58:08;;;;;;;4.53;2.65;;;;;;;13.12;100.00;99763.28;5228000;27;20047;-95
2024/04/12 04:00:38;;;;;;;4.97;2.65;;;;;;;13.18;100.00;99755.13;5229322;27;20039;-94
2024/04/12 04:03:09;;;;;;;4.90;2.15;;;;;;;13.37;100.00;99760.09;5230563;27;20015;-95
2024/04/12 04:05:37;;;;;;;7.38;2.75;;;;;;;12.97;100.00;99686.16;5227107;27;20011;-95
2024/04/12 04:08:04;;;;;;;4.20;2.38;;;;;;;13.42;99.15;99768.88;5224869;27;20027;-94
2024/04/12 04:10:35;;;;;;;8.27;2.58;;;;;;;12.58;98.64;99619.38;5252514;27;20011;-95
2024/04/12 04:13:04;;;;;;;4.65;2.53;;;;;;;13.37;96.66;99733.38;5222833;27;20499;-94
2024/04/12 04:15:30;;;;;;;3.95;2.20;;;;;;;12.93;95.01;99635.50;5206590;27;20032;-96
2024/04/12 04:17:56;;;;;;;5.40;2.95;;;;;;;13.61;93.33;99743.47;5216408;27;20011;-94
2024/04/12 04:20:27;;;;;;;4.18;2.53;;;;;;;13.78;92.89;99756.44;5218794;27;20006;-95
2024/04/12 04:23:02;;;;;;;7.57;2.83;;;;;;;13.17;91.71;99651.00;5222779;27;20012;-95
2024/04/12 04:25:38;;;;;;;4.40;2.67;;;;;;;13.09;91.19;99624.47;5249919;21;19995;-96
2024/04/12 04:28:09;;;;;;;;;;;;;;;13.83;91.21;99759.88;5325376;26;20030;-94
2024/04/12 04:30:35;;;;;;;4.15;2.55;;;;;;;13.55;90.04;99727.59;5293505;27;19934;-94
2024/04/12 04:33:01;;;;;;;3.70;2.25;;;;;;;13.13;88.58;99632.38;5324966;26;20034;-93
2024/04/12 04:35:28;;;;;;;5.22;2.45;;;;;;;13.79;87.92;99728.78;5292587;27;20080;-96
2024/04/12 04:37:55;;;;;;;4.25;2.30;;;;;;;13.67;88.15;99721.09;5286597;27;20082;-95
2024/04/12 04:43:08;;;;;;;4.35;2.55;;;;;;;14.06;85.65;99740.59;5329308;21;20054;-91
2024/04/12 04:45:34;;;;;;;4.82;2.65;;;;;;;14.25;84.72;99748.13;5342053;26;20019;-96
2024/04/12 04:50:36;;;;;;;4.75;2.05;;;;;;;14.39;83.08;99760.22;5409670;21;20048;-92
2024/04/12 04:53:02;;;;;;;4.43;2.38;;;;;;;14.50;82.58;99757.25;5360262;26;19993;-93
2024/04/12 04:55:36;;;;;;;6.07;1.95;;;;;;;14.49;82.15;99760.88;5340387;26;20005;-96
2024/04/12 04:58:02;;;;;;;4.18;2.15;;;;;;;14.10;81.59;99682.56;5383645;26;20019;-95
2024/04/12 05:00:40;;;;;;;4.53;2.60;;;;;;;14.11;82.34;99686.97;5359690;26;20013;-92
2024/04/12 05:03:07;;;;;;;4.57;2.60;;;;;;;13.76;81.62;99614.78;5371119;26;20008;-96
2024/04/12 05:14:54;;;;;;;4.60;2.30;;;;;;;14.22;79.80;99647.44;5887457;21;20005;-96
2024/04/12 05:17:55;;;;;;;5.93;2.38;;;;;;;14.47;79.31;99674.38;5608201;21;19997;-95
2024/04/12 05:24:14;;;;;;;6.93;2.15;;;;;;;14.91;80.91;99762.41;5730188;21;20004;-95
2024/04/12 05:32:06;;;;;;;4.82;2.40;;;;;;;14.86;82.81;99769.72;6005685;21;19990;-96
2024/04/12 05:56:26;;;;;;;6.55;2.47;;;;;;;14.89;81.12;99662.47;5971736;21;19935;-96
2024/04/12 06:02:16;;;;;;;3.50;2.20;;;;;;;15.28;79.84;99691.66;5437015;21;20025;-96
2024/04/12 06:07:35;;;;;;;5.30;2.55;;;;;;;15.54;76.97;99688.13;5501652;21;20033;-96
2024/04/12 06:10:04;;;;;;;5.70;2.28;;;;;;;15.67;75.32;99661.78;5307481;26;20037;-96
2024/04/12 06:12:42;;;;;;;5.18;2.28;;;;;;;16.12;74.99;99688.88;5308124;26;20005;-96
2024/04/12 06:26:23;;;;;;;4.40;2.22;;;;;;;17.00;72.00;99772.56;6160618;21;20013;-92
2024/04/12 06:31:34;;;;;;;4.07;2.20;;;;;;;17.35;72.68;99785.56;5429388;21;20021;-94
2024/04/12 06:36:45;;;;;;;4.93;2.60;;;;;;;16.58;72.52;99668.41;5494523;21;20036;-95
2024/04/12 07:02:01;;;;;;;7.15;2.45;;;;;;;18.75;66.10;99788.75;5648766;21;20025;31
2024/04/12 07:07:31;;;;;;;8.02;3.28;;;;;;;18.83;66.55;99791.16;5482135;21;20145;-95
2024/04/12 07:10:09;;;;;;;4.57;2.25;;;;;;;18.84;65.62;99739.00;5552606;22;20003;-95
2024/04/12 07:15:33;;;;;;;5.88;2.95;;;;;;;18.64;65.80;99684.16;5555580;21;20025;-95
2024/04/12 07:24:25;;;;;;;3.90;2.47;;;;;;;19.87;63.86;99786.31;5330882;27;20048;-96
2024/04/12 07:26:55;;;;;;;6.60;2.85;;;;;;;19.22;62.95;99720.19;5298785;26;19993;-94
2024/04/12 07:29:21;;;;;;;4.97;3.10;;;;;;;19.22;63.20;99712.97;5324451;27;20006;-95
2024/04/12 07:31:53;;;;;;;5.40;2.63;;;;;;;19.56;62.44;99696.97;5299002;27;20021;-96
2024/04/12 07:34:22;;;;;;;4.80;2.35;;;;;;;19.91;63.49;99746.56;5326871;27;20005;-93
2024/04/12 07:36:52;;;;;;;6.93;3.17;;;;;;;19.96;61.64;99738.22;5324243;27;20056;-95
2024/04/12 07:42:08;;;;;;;5.10;2.45;;;;;;;20.33;61.88;99749.84;5490922;21;20008;-95
2024/04/12 07:44:39;;;;;;;6.95;3.20;;;;;;;19.56;60.57;99654.69;5365149;26;20001;-94
2024/04/12 07:47:11;;;;;;;8.70;3.42;;;;;;;19.78;60.64;99680.59;5340480;26;20012;-94
2024/04/12 07:49:48;;;;;;;5.38;3.17;;;;;;;19.99;61.04;99738.91;5334118;26;20020;-96
2024/04/12 07:52:34;;;;;;;4.97;2.97;;;;;;;20.07;60.71;99671.91;5339971;26;20076;-96
2024/04/12 07:55:09;;;;;;;7.47;3.67;;;;;;;20.18;61.48;99754.19;5570311;21;20442;-95
2024/04/12 07:57:50;;;;;;;6.75;3.65;;;;;;;20.25;60.28;99680.00;5370742;21;20018;-96
2024/04/12 08:03:36;;;;;;;5.68;3.30;;;;;;;20.69;58.50;99690.31;5926644;21;20083;-95
2024/04/12 08:06:36;;;;;;;11.35;3.40;;;;;;;20.47;58.59;99686.03;5449534;21;20005;-94
2024/04/12 08:11:41;;;;;;;7.63;3.38;;;;;;;20.34;58.88;99698.41;5286797;26;20320;-93
2024/04/12 08:14:22;;;;;;;7.47;2.90;;;;;;;20.53;58.48;99691.09;5232600;27;20031;-95
2024/04/12 08:16:55;;;;;;;8.70;3.15;;;;;;;21.20;60.43;99795.72;5252924;27;20022;-96
2024/04/12 08:19:23;;;;;;;7.38;2.70;;;;;;;20.54;59.50;99691.97;5256021;27;20006;-95
2024/04/12 08:21:50;;;;;;;4.93;3.30;;;;;;;21.34;57.99;99771.50;5240736;27;20011;-95
2024/04/12 08:24:24;;;;;;;6.13;2.97;;;;;;;21.17;57.68;99753.50;5233763;27;20059;-94
2024/04/12 08:26:51;;;;;;;6.75;3.13;;;;;;;21.07;58.95;99755.81;5286622;21;20024;-96
2024/04/12 08:29:23;;;;;;;7.32;3.05;;;;;;;20.90;58.76;99696.38;5258382;27;20080;-95
2024/04/12 08:32:11;;;;;;;4.10;2.88;;;;;;;20.98;58.73;99690.56;5259235;27;20053;-94
2024/04/12 08:34:42;;;;;;;11.30;3.50;;;;;;;21.23;57.77;99771.19;5234005;27;20021;-95
2024/04/12 08:37:13;;;;;;;4.18;2.85;;;;;;;21.85;57.84;99790.31;5266434;27;20010;-95
2024/04/12 08:39:43;;;;;;;9.73;2.97;;;;;;;21.49;55.90;99694.00;5287385;27;20051;-94
2024/04/12 08:42:11;;;;;;;5.22;3.50;;;;;;;21.82;57.06;99739.94;5382687;21;20384;-96
2024/04/12 08:44:50;;;;;;;5.90;3.30;;;;;;;21.89;57.02;99786.47;5359462;26;20009;-96
2024/04/12 08:52:43;;;;;;;3.75;2.55;;;;;;;22.79;54.83;99782.94;5543761;21;20057;-94
2024/04/12 08:55:13;;;;;;;5.22;2.63;;;;;;;22.23;54.67;99693.31;5320952;26;20025;-94
2024/04/12 08:57:41;;;;;;;6.88;3.13;;;;;;;22.09;54.47;99712.19;5326497;26;20004;-96
2024/04/12 09:00:17;;;;;;;5.50;3.30;;;;;;;22.27;54.89;99770.75;5318263;26;20052;-93
2024/04/12 09:02:48;;;;;;;6.43;2.95;;;;;;;22.28;55.27;99722.81;5449404;21;20373;-95
2024/04/12 09:05:15;;;;;;;4.78;2.72;;;;;;;22.41;54.82;99785.31;5339240;26;20019;-96
2024/04/12 09:10:25;;;;;;;4.30;2.95;;;;;;;22.50;53.49;99665.47;5598861;21;20055;-96
2024/04/12 09:12:52;;;;;;;5.60;3.17;;;;;;;23.04;54.62;99760.66;5322340;26;20006;-95
2024/04/12 09:15:32;;;;;;;8.75;3.03;;;;;;;23.08;52.74;99792.03;5317602;26;20045;-96
2024/04/12 09:34:55;;;;;;;3.88;2.85;;;;;;;23.54;52.39;99688.66;6110128;21;20000;-95
2024/04/12 09:40:24;;;;;;;6.35;3.38;;;;;;;23.87;48.66;99716.44;6033302;21;20744;-95
2024/04/12 09:45:45;;;;;;;6.70;3.05;;;;;;;24.39;50.77;99775.41;5590951;25;20329;-96
2024/04/12 10:45:14;;;;;;;;;;;;;;;25.66;44.31;99740.19;5829348;21;20032;-96
2024/04/12 10:51:19;;;;;;;4.57;2.38;;;;;;;25.71;42.83;99736.13;5991308;20;20003;-96
2024/04/12 10:59:52;;;;;;;5.05;2.45;;;;;;;25.01;40.35;99721.22;4955624;21;20003;-95
2024/04/12 11:13:34;;;;;;;3.45;2.13;;;;;;;25.34;41.12;99727.94;5726288;20;19953;-96
2024/04/12 11:31:28;;;;;;;5.78;2.42;;;;;;;25.44;38.04;99592.00;5873071;20;20004;-96
2024/04/12 11:34:08;;;;;;;2.55;1.75;;;;;;;25.58;39.26;99589.06;5373982;26;20000;-95
2024/04/12 11:42:39;;;;;;;;;;;;;;;26.40;39.17;99692.72;5863653;20;20063;-96
2024/04/12 11:45:14;;;;;;;3.38;2.22;;;;;;;25.97;37.98;99616.13;5455706;26;19943;-95
2024/04/12 11:47:56;;;;;;;3.30;2.17;;;;;;;26.52;38.39;99682.69;5466089;26;20049;-96
2024/04/12 11:53:10;;;;;;;5.03;2.20;;;;;;;26.35;37.44;99691.34;5361799;26;20017;-96
2024/04/12 11:56:17;;;;;;;5.03;2.50;;;;;;;26.51;37.59;99686.44;5295065;27;20065;-95
2024/04/12 11:59:09;;;;;;;5.82;2.33;;;;;;;26.47;38.82;99649.47;5849067;21;20014;-93
2024/04/12 12:01:37;;;;;;;5.00;2.50;;;;;;;26.64;38.55;99670.00;5391591;26;20000;-94
2024/04/12 12:12:51;;;;;;;3.70;2.40;;;;;;;26.27;39.36;99644.72;5965893;21;20206;-96
2024/04/12 12:31:58;;;;;;;4.40;2.00;;;;;;;25.85;38.64;99538.03;5731482;21;20052;-96
2024/04/12 12:37:28;;;;;;;9.30;2.50;;;;;;;26.53;39.62;99597.16;6351993;21;20010;-93
2024/04/12 12:51:14;;;;;;;4.32;2.65;;;;;;;26.87;40.45;99631.78;6156248;21;20005;31
2024/04/12 12:58:52;;;;;;;6.28;1.98;;;;;;;26.00;38.29;99499.59;5520486;21;19950;-95
2024/04/12 13:07:30;;;;;;;6.32;2.42;;;;;;;26.84;39.48;99568.28;6343761;21;20021;31
2024/04/12 13:09:56;;;;;;;4.43;2.53;;;;;;;26.74;37.13;99556.41;5746929;21;20012;-96
2024/04/12 13:15:12;;;;;;;3.58;2.15;;;;;;;27.25;37.74;99606.84;6428975;20;19998;31
2024/04/12 13:17:45;;;;;;;4.53;3.00;;;;;;;27.34;36.81;99602.47;5804274;21;21050;-96
2024/04/12 13:20:27;;;;;;;4.85;2.25;;;;;;;26.73;37.42;99480.97;5437702;26;20007;-96
2024/04/12 13:22:57;;;;;;;4.75;2.20;;;;;;;27.22;38.39;99594.31;5470079;26;20007;-96
2024/04/12 13:25:23;;;;;;;4.40;3.38;;;;;;;27.28;36.49;99592.06;5405530;26;20343;-95
2024/04/12 13:30:30;;;;;;;;;;;;;;;27.03;37.36;99584.00;6018932;20;19999;-95
2024/04/12 13:32:58;;;;;;;4.40;2.15;;;;;;;26.78;35.96;99527.88;5432186;26;19936;-96
2024/04/12 13:41:04;;;;;;;;;;;;;;;27.11;36.37;99577.94;6455340;20;20286;-96
2024/04/12 13:52:03;;;;;;;4.50;2.13;;;;;;;27.38;36.39;99574.78;5942802;20;20007;-96
2024/04/12 13:54:41;;;;;;;5.15;1.90;;;;;;;26.58;37.28;99457.69;5405865;26;20016;-96
2024/04/12 13:57:31;;;;;;;6.07;2.08;;;;;;;26.83;36.87;99483.84;5515202;21;20052;-95
2024/04/12 13:59:59;;;;;;;3.05;1.63;;;;;;;26.98;38.00;99561.69;5440654;26;20018;-93
2024/04/12 14:02:30;;;;;;;4.60;2.33;;;;;;;26.48;37.65;99441.22;5447478;26;20014;-93
2024/04/12 14:15:21;;;;;;;3.45;2.20;;;;;;;27.04;40.39;99547.56;5571389;21;19994;-95
2024/04/12 14:17:52;;;;;;;3.53;2.00;;;;;;;26.94;40.48;99515.69;5721092;21;20007;-96
2024/04/12 14:28:46;;;;;;;3.45;2.30;;;;;;;26.79;41.34;99498.72;5409723;26;20016;-96
2024/04/12 14:31:28;;;;;;;4.43;2.25;;;;;;;27.31;39.29;99539.94;5546732;21;20000;-96
2024/04/12 14:34:03;;;;;;;5.32;2.47;;;;;;;27.29;38.71;99533.75;5513931;21;20017;-96
2024/04/12 14:36:32;;;;;;;5.80;2.90;;;;;;;26.98;37.73;99487.16;5405282;26;20007;-95
2024/04/12 14:39:15;;;;;;;3.58;2.20;;;;;;;27.30;38.12;99530.84;5392149;26;20004;-96
2024/04/12 14:41:49;;;;;;;3.50;2.33;;;;;;;26.56;39.08;99418.78;5421003;26;20009;-96
2024/04/12 14:55:27;;;;;;;4.80;2.00;;;;;;;27.09;38.05;99528.06;6068966;21;19991;-94
2024/04/12 14:58:03;;;;;;;2.67;2.22;;;;;;;26.64;37.64;99419.00;5965915;21;21362;-95
2024/04/12 16:20:02;;;;;;;5.30;3.13;;;;;;;25.86;46.94;99527.00;5321341;22;20034;-95
2024/04/12 16:22:29;;;;;;;4.50;3.10;;;;;;;25.86;46.86;99521.56;5618336;22;20006;-95
2024/04/12 16:25:07;;;;;;;5.18;2.85;;;;;;;25.53;46.93;99473.31;5817597;22;20018;-95
2024/04/12 16:27:35;;;;;;;5.78;3.17;;;;;;;24.96;47.81;99496.66;5617970;22;20011;-96
2024/04/12 16:30:17;;;;;;;5.97;3.15;;;;;;;25.32;48.70;99528.44;5361768;22;20056;-96
2024/04/12 16:33:03;;;;;;;8.32;2.95;;;;;;;24.63;48.96;99437.50;5216955;22;20005;-96
2024/04/12 16:36:28;;;;;;;7.30;2.85;;;;;;;24.55;49.29;99425.34;5194582;27;20323;-95
2024/04/12 16:39:12;;;;;;;5.18;3.42;;;;;;;24.29;49.26;99423.66;5167073;27;20009;-96
2024/04/12 16:41:49;;;;;;;7.40;3.03;;;;;;;24.15;50.09;99416.50;5162303;27;20009;-96
2024/04/12 16:44:47;;;;;;;4.38;2.78;;;;;;;24.16;50.23;99435.44;5434380;22;20015;-95
2024/04/12 16:47:13;;;;;;;4.97;3.90;;;;;;;24.63;50.71;99533.53;5641450;22;20860;-96
2024/04/12 16:50:32;;;;;;;4.70;2.60;;;;;;;23.90;50.85;99439.13;5292332;27;20003;-95
2024/04/12 16:53:04;;;;;;;6.40;2.80;;;;;;;23.92;51.58;99488.78;5264976;27;20011;-94
2024/04/12 16:55:30;;;;;;;5.70;3.10;;;;;;;23.91;52.73;99546.81;5226196;27;20021;-94
2024/04/12 16:57:59;;;;;;;7.97;3.08;;;;;;;23.40;52.85;99477.00;5233945;27;20006;-94
2024/04/12 17:06:03;;;;;;;5.47;3.50;;;;;;;24.31;50.48;99509.56;5781580;22;20038;-96
2024/04/12 17:08:35;;;;;;;5.57;3.17;;;;;;;23.29;52.34;99452.41;5231178;27;20023;-95
2024/04/12 17:13:36;;;;;;;5.18;3.03;;;;;;;23.05;53.81;99483.00;5444404;22;20043;-95
2024/04/12 17:16:03;;;;;;;4.28;2.88;;;;;;;22.46;54.87;99434.41;5260882;27;20011;-96
2024/04/12 17:18:31;;;;;;;7.38;2.97;;;;;;;22.75;56.11;99521.97;5785529;22;20010;-94
2024/04/12 18:14:46;;;;;;;7.60;3.10;;;;;;;20.49;61.70;99473.38;5273871;27;20055;-96
2024/04/12 18:17:12;;;;;;;5.30;3.08;;;;;;;21.20;61.75;99598.25;5325198;22;20007;-95
2024/04/12 18:19:42;;;;;;;6.47;3.15;;;;;;;20.44;61.40;99471.88;5695484;22;20018;-96
2024/04/12 18:25:58;;;;;;;5.53;3.45;;;;;;;20.53;62.29;99531.66;5252766;27;20003;-95
2024/04/12 18:28:37;;;;;;;6.95;3.05;;;;;;;20.87;62.01;99573.06;5338572;22;20007;-95
2024/04/12 18:33:47;;;;;;;8.57;3.00;;;;;;;20.10;62.91;99498.94;5659073;22;20006;-95
2024/04/12 18:36:20;;;;;;;6.25;3.60;;;;;;;19.93;62.86;99481.91;5236341;27;20006;-95
2024/04/12 18:47:29;;;;;;;5.90;4.40;;;;;;;20.42;63.22;99584.56;5583006;25;20460;-94
2024/04/12 18:49:54;;;;;;;7.63;5.00;;;;;;;19.89;63.24;99511.78;5526950;25;20465;-93
2024/04/12 18:52:21;;;;;;;6.38;5.10;;;;;;;20.35;63.46;99615.56;5523203;25;20005;-91
2024/04/12 18:54:47;;;;;;;6.50;4.47;;;;;;;19.95;63.54;99561.88;5526867;25;20006;-95
2024/04/12 18:57:13;;;;;;;8.25;5.15;;;;;;;20.01;63.49;99595.75;5536903;25;20105;-89
2024/04/12 18:59:39;;;;;;;7.50;4.90;;;;;;;19.93;63.36;99579.09;5535909;25;20013;-94
2024/04/12 19:02:06;;;;;;;7.38;4.40;;;;;;;20.30;63.21;99630.19;5526005;25;20006;-92
2024/04/12 19:04:35;;;;;;;9.30;3.55;;;;;;;20.06;63.19;99572.97;5533734;25;20013;-96
2024/04/12 19:07:07;;;;;;;6.05;3.85;;;;;;;19.67;62.89;99513.84;5544459;25;19994;-95
2024/04/12 19:09:35;;;;;;;7.35;4.07;;;;;;;20.31;63.06;99633.75;5503270;26;19998;-94
2024/04/12 19:12:01;;;;;;;8.80;4.57;;;;;;;19.92;63.44;99580.91;5506535;25;20006;-95
2024/04/12 19:14:27;;;;;;;7.22;4.43;;;;;;;19.42;63.87;99507.00;5508011;26;20006;-96
2024/04/12 19:16:57;;;;;;;6.18;4.68;;;;;;;19.87;64.29;99591.97;5637427;21;20010;-94
2024/04/12 19:19:24;;;;;;;4.63;4.15;;;;;;;20.33;64.04;99660.72;5434683;26;20011;-96
2024/04/12 19:22:06;;;;;;;7.00;4.00;;;;;;;20.26;63.58;99630.44;5486992;21;20008;-95
2024/04/12 19:24:53;;;;;;;6.65;4.50;;;;;;;19.94;64.17;99616.81;5381954;26;19997;-95
2024/04/12 19:27:33;;;;;;;6.40;4.60;;;;;;;20.07;64.46;99630.53;5381968;26;20035;-95
2024/04/12 19:32:41;;;;;;;5.68;4.60;;;;;;;20.00;65.54;99662.38;5408193;26;20444;-95
2024/04/12 19:35:12;;;;;;;5.47;4.63;;;;;;;19.12;65.80;99530.16;5414246;26;20003;-96
2024/04/12 19:37:48;;;;;;;7.25;4.50;;;;;;;19.30;65.40;99537.31;5426446;26;20008;-96
2024/04/12 19:45:48;;;;;;;7.65;4.88;;;;;;;19.89;65.85;99668.34;6278105;21;20024;31
2024/04/12 19:54:12;;;;;;;6.38;4.90;;;;;;;19.74;66.14;99674.50;6035536;21;19998;-94
2024/04/12 19:59:22;;;;;;;5.57;4.63;;;;;;;18.64;67.50;99544.09;5780828;21;19994;-95
2024/04/12 20:01:48;;;;;;;7.25;4.50;;;;;;;19.31;68.01;99682.00;5317401;26;20021;-95
2024/04/12 20:12:52;;;;;;;8.40;4.72;;;;;;;19.42;68.22;99685.03;5809160;21;20024;-93
2024/04/12 20:17:54;;;;;;;7.65;4.78;;;;;;;18.92;68.16;99591.31;6523788;21;20013;-94
2024/04/12 20:23:20;;;;;;;10.35;5.38;;;;;;;18.33;69.34;99538.41;6198292;21;19992;-95
2024/04/12 20:37:35;;;;;;;5.00;3.65;;;;;;;18.99;69.97;99678.13;5568629;25;20335;-96
2024/04/12 20:42:35;;;;;;;6.68;3.75;;;;;;;18.07;70.98;99564.72;5387917;26;20449;-95
2024/04/12 20:45:29;;;;;;;6.72;4.00;;;;;;;17.99;70.54;99538.13;5365774;26;20001;-95
2024/04/12 20:53:30;;;;;;;7.07;4.47;;;;;;;18.81;70.09;99679.88;5469982;21;20021;-96
2024/04/12 20:56:00;;;;;;;6.75;3.55;;;;;;;18.78;69.77;99678.19;5399511;26;19992;-95
2024/04/12 21:01:04;;;;;;;7.22;3.30;;;;;;;18.54;68.71;99611.94;5991801;21;19924;-91
2024/04/12 21:03:31;;;;;;;8.40;3.33;;;;;;;18.56;68.93;99637.84;5385047;21;20027;-96
2024/04/12 21:06:13;;;;;;;6.22;3.88;;;;;;;18.13;68.52;99550.97;5454647;21;20141;-96
2024/04/12 21:08:46;;;;;;;5.20;3.53;;;;;;;18.92;68.75;99684.78;5743823;21;20016;-96
2024/04/12 21:17:08;;;;;;;8.68;3.80;;;;;;;18.74;69.10;99684.66;6142469;22;20021;31
2024/04/12 21:36:53;;;;;;;5.75;3.42;;;;;;;18.79;67.48;99685.31;4832847;22;20003;-96
2024/04/12 21:42:33;;;;;;;7.30;4.05;;;;;;;18.17;67.57;99610.91;5235066;22;20019;-95
2024/04/12 21:45:03;;;;;;;4.28;2.90;;;;;;;17.91;67.29;99566.31;5100426;28;20014;-96
2024/04/12 21:49:58;;;;;;;4.80;3.10;;;;;;;18.67;67.25;99686.75;5273488;22;20035;-95
2024/04/12 21:56:04;;;;;;;6.65;3.45;;;;;;;17.98;67.32;99571.38;5243726;22;20026;-96